sensor_id;sensor_type;location;lat;lon;timestamp;temperature;humidity
39099;DHT22;24844;52.380;7.018;2023-03-21T00:01:33;10.60;99.90
39099;DHT22;24844;52.380;7.018;2023-03-21T00:03:58;10.50;99.90
39099;DHT22;24844;52.380;7.018;2023-03-21T00:06:24;10.60;99.90
39099;DHT22;24844;52.380;7.018;2023-03-21T00:08:50;10.60;99.90
39099;DHT22;24844;52.380;7.018;2023-03-21T00:11:15;10.60;99.90
39099;DHT22;24844;52.380;7.018;2023-03-21T00:13:41;10.70;99.90
39099;DHT22;24844;52.380;7.018;2023-03-21T00:16:13;10.70;99.90
39099;DHT22;24844;52.380;7.018;2023-03-21T00:18:47;10.70;99.90
39099;DHT22;24844;52.380;7.018;2023-03-21T00:21:18;10.80;99.90
39099;DHT22;24844;52.380;7.018;2023-03-21T00:23:45;10.70;99.90
39099;DHT22;24844;52.380;7.018;2023-03-21T00:26:12;10.70;99.90
39099;DHT22;24844;52.380;7.018;2023-03-21T00:28:41;10.90;99.90
39099;DHT22;24844;52.380;7.018;2023-03-21T00:31:08;10.80;99.90
39099;DHT22;24844;52.380;7.018;2023-03-21T00:33:34;10.80;99.90
39099;DHT22;24844;52.380;7.018;2023-03-21T00:36:01;10.70;99.90
39099;DHT22;24844;52.380;7.018;2023-03-21T00:38:27;10.80;99.90
39099;DHT22;24844;52.380;7.018;2023-03-21T00:40:52;10.70;99.90
39099;DHT22;24844;52.380;7.018;2023-03-21T00:43:18;10.70;99.90
39099;DHT22;24844;52.380;7.018;2023-03-21T00:45:48;10.70;99.90
39099;DHT22;24844;52.380;7.018;2023-03-21T00:48:14;11.00;99.90
39099;DHT22;24844;52.380;7.018;2023-03-21T00:50:40;10.80;99.90
39099;DHT22;24844;52.380;7.018;2023-03-21T00:53:09;11.10;99.90
39099;DHT22;24844;52.380;7.018;2023-03-21T00:55:35;11.10;99.90
39099;DHT22;24844;52.380;7.018;2023-03-21T00:58:02;11.00;99.90
39099;DHT22;24844;52.380;7.018;2023-03-21T01:00:27;11.10;99.90
39099;DHT22;24844;52.380;7.018;2023-03-21T01:02:53;11.00;99.90
39099;DHT22;24844;52.380;7.018;2023-03-21T01:05:27;11.00;99.90
39099;DHT22;24844;52.380;7.018;2023-03-21T01:08:12;10.80;99.90
39099;DHT22;24844;52.380;7.018;2023-03-21T01:10:40;11.10;99.90
39099;DHT22;24844;52.380;7.018;2023-03-21T01:13:07;11.10;99.90
39099;DHT22;24844;52.380;7.018;2023-03-21T01:15:33;11.00;99.90
39099;DHT22;24844;52.380;7.018;2023-03-21T01:17:59;11.10;99.90
39099;DHT22;24844;52.380;7.018;2023-03-21T01:20:24;11.10;99.90
39099;DHT22;24844;52.380;7.018;2023-03-21T01:22:50;11.10;99.90
39099;DHT22;24844;52.380;7.018;2023-03-21T01:25:16;11.20;99.90
39099;DHT22;24844;52.380;7.018;2023-03-21T01:27:41;11.10;99.90
39099;DHT22;24844;52.380;7.018;2023-03-21T01:30:07;11.40;99.90
39099;DHT22;24844;52.380;7.018;2023-03-21T01:32:33;11.30;99.90
39099;DHT22;24844;52.380;7.018;2023-03-21T01:34:59;11.00;99.90
39099;DHT22;24844;52.380;7.018;2023-03-21T01:37:25;11.10;99.90
39099;DHT22;24844;52.380;7.018;2023-03-21T01:39:51;11.10;99.90
39099;DHT22;24844;52.380;7.018;2023-03-21T01:42:16;11.10;99.90
39099;DHT22;24844;52.380;7.018;2023-03-21T01:47:55;11.10;99.90
39099;DHT22;24844;52.380;7.018;2023-03-21T01:50:21;10.90;99.90
39099;DHT22;24844;52.380;7.018;2023-03-21T01:52:48;10.80;99.90
39099;DHT22;24844;52.380;7.018;2023-03-21T01:55:15;10.70;99.90
39099;DHT22;24844;52.380;7.018;2023-03-21T01:57:46;10.80;99.90
39099;DHT22;24844;52.380;7.018;2023-03-21T02:00:14;10.80;99.90
39099;DHT22;24844;52.380;7.018;2023-03-21T02:02:43;10.90;99.90
39099;DHT22;24844;52.380;7.018;2023-03-21T02:05:17;10.80;99.90
39099;DHT22;24844;52.380;7.018;2023-03-21T02:07:44;10.90;99.90
39099;DHT22;24844;52.380;7.018;2023-03-21T02:10:13;11.10;99.90
39099;DHT22;24844;52.380;7.018;2023-03-21T02:12:40;10.90;99.90
39099;DHT22;24844;52.380;7.018;2023-03-21T02:15:07;10.90;99.90
39099;DHT22;24844;52.380;7.018;2023-03-21T02:28:45;10.80;99.90
39099;DHT22;24844;52.380;7.018;2023-03-21T02:31:48;10.70;99.90
39099;DHT22;24844;52.380;7.018;2023-03-21T02:37:18;10.80;99.90
39099;DHT22;24844;52.380;7.018;2023-03-21T02:40:02;10.70;99.90
39099;DHT22;24844;52.380;7.018;2023-03-21T02:42:57;10.50;99.90
39099;DHT22;24844;52.380;7.018;2023-03-21T02:45:29;10.60;99.90
39099;DHT22;24844;52.380;7.018;2023-03-21T02:48:02;10.60;99.90
39099;DHT22;24844;52.380;7.018;2023-03-21T02:50:57;10.70;99.90
39099;DHT22;24844;52.380;7.018;2023-03-21T02:53:24;10.80;99.90
39099;DHT22;24844;52.380;7.018;2023-03-21T02:55:53;10.60;99.90
39099;DHT22;24844;52.380;7.018;2023-03-21T02:58:22;10.60;99.90
39099;DHT22;24844;52.380;7.018;2023-03-21T03:00:49;10.50;99.90
39099;DHT22;24844;52.380;7.018;2023-03-21T03:03:15;10.70;99.90
39099;DHT22;24844;52.380;7.018;2023-03-21T03:05:47;10.60;99.90
39099;DHT22;24844;52.380;7.018;2023-03-21T03:14:07;10.70;99.90
39099;DHT22;24844;52.380;7.018;2023-03-21T03:17:02;10.70;99.90
39099;DHT22;24844;52.380;7.018;2023-03-21T03:19:33;10.60;99.90
39099;DHT22;24844;52.380;7.018;2023-03-21T03:22:09;10.70;99.90
39099;DHT22;24844;52.380;7.018;2023-03-21T03:24:44;10.80;99.90
39099;DHT22;24844;52.380;7.018;2023-03-21T03:27:19;10.60;99.90
39099;DHT22;24844;52.380;7.018;2023-03-21T03:29:50;10.60;99.90
39099;DHT22;24844;52.380;7.018;2023-03-21T03:32:17;10.70;99.90
39099;DHT22;24844;52.380;7.018;2023-03-21T03:34:48;10.70;99.90
39099;DHT22;24844;52.380;7.018;2023-03-21T03:37:19;10.50;99.90
39099;DHT22;24844;52.380;7.018;2023-03-21T03:39:54;10.60;99.90
39099;DHT22;24844;52.380;7.018;2023-03-21T03:42:27;10.50;99.90
39099;DHT22;24844;52.380;7.018;2023-03-21T03:44:55;10.70;99.90
39099;DHT22;24844;52.380;7.018;2023-03-21T03:47:43;10.70;99.90
39099;DHT22;24844;52.380;7.018;2023-03-21T03:50:17;10.70;99.90
39099;DHT22;24844;52.380;7.018;2023-03-21T03:52:49;10.60;99.90
39099;DHT22;24844;52.380;7.018;2023-03-21T03:55:18;10.60;99.90
39099;DHT22;24844;52.380;7.018;2023-03-21T03:57:46;10.60;99.90
39099;DHT22;24844;52.380;7.018;2023-03-21T04:00:12;10.50;99.90
39099;DHT22;24844;52.380;7.018;2023-03-21T04:02:40;10.60;99.90
39099;DHT22;24844;52.380;7.018;2023-03-21T04:05:05;10.60;99.90
39099;DHT22;24844;52.380;7.018;2023-03-21T04:07:31;10.40;99.90
39099;DHT22;24844;52.380;7.018;2023-03-21T04:09:57;10.40;99.90
39099;DHT22;24844;52.380;7.018;2023-03-21T04:12:23;10.40;99.90
39099;DHT22;24844;52.380;7.018;2023-03-21T04:14:49;10.50;99.90
39099;DHT22;24844;52.380;7.018;2023-03-21T04:17:15;10.40;99.90
39099;DHT22;24844;52.380;7.018;2023-03-21T04:19:40;10.40;99.90
39099;DHT22;24844;52.380;7.018;2023-03-21T04:22:07;10.40;99.90
39099;DHT22;24844;52.380;7.018;2023-03-21T04:24:32;10.40;99.90
39099;DHT22;24844;52.380;7.018;2023-03-21T04:26:59;10.30;99.90
39099;DHT22;24844;52.380;7.018;2023-03-21T04:29:25;10.40;99.90
39099;DHT22;24844;52.380;7.018;2023-03-21T04:31:54;10.30;99.90
39099;DHT22;24844;52.380;7.018;2023-03-21T04:34:20;10.60;99.90
39099;DHT22;24844;52.380;7.018;2023-03-21T04:36:49;10.50;99.90
39099;DHT22;24844;52.380;7.018;2023-03-21T04:39:16;10.30;99.90
39099;DHT22;24844;52.380;7.018;2023-03-21T04:41:43;10.40;99.90
39099;DHT22;24844;52.380;7.018;2023-03-21T04:44:11;10.30;99.90
39099;DHT22;24844;52.380;7.018;2023-03-21T04:46:37;10.10;99.90
39099;DHT22;24844;52.380;7.018;2023-03-21T04:49:03;10.10;99.90
39099;DHT22;24844;52.380;7.018;2023-03-21T04:51:29;10.40;99.90
39099;DHT22;24844;52.380;7.018;2023-03-21T04:53:55;10.30;99.90
39099;DHT22;24844;52.380;7.018;2023-03-21T04:56:26;10.30;99.90
39099;DHT22;24844;52.380;7.018;2023-03-21T04:58:57;10.40;99.90
39099;DHT22;24844;52.380;7.018;2023-03-21T05:01:24;10.40;99.90
39099;DHT22;24844;52.380;7.018;2023-03-21T05:03:50;10.50;99.90
39099;DHT22;24844;52.380;7.018;2023-03-21T05:06:16;10.50;99.90
39099;DHT22;24844;52.380;7.018;2023-03-21T05:08:42;10.20;99.90
39099;DHT22;24844;52.380;7.018;2023-03-21T05:11:08;10.30;99.90
39099;DHT22;24844;52.380;7.018;2023-03-21T05:13:34;10.20;99.90
39099;DHT22;24844;52.380;7.018;2023-03-21T05:15:59;10.20;99.90
39099;DHT22;24844;52.380;7.018;2023-03-21T05:18:25;10.20;99.90
39099;DHT22;24844;52.380;7.018;2023-03-21T05:20:52;10.50;99.90
39099;DHT22;24844;52.380;7.018;2023-03-21T05:23:21;10.20;99.90
39099;DHT22;24844;52.380;7.018;2023-03-21T05:25:48;10.30;99.90
39099;DHT22;24844;52.380;7.018;2023-03-21T05:28:13;10.40;99.90
39099;DHT22;24844;52.380;7.018;2023-03-21T05:30:43;10.30;99.90
39099;DHT22;24844;52.380;7.018;2023-03-21T05:33:09;10.30;99.90
39099;DHT22;24844;52.380;7.018;2023-03-21T05:35:34;10.40;99.90
39099;DHT22;24844;52.380;7.018;2023-03-21T05:38:00;10.40;99.90
39099;DHT22;24844;52.380;7.018;2023-03-21T05:40:25;10.50;99.90
39099;DHT22;24844;52.380;7.018;2023-03-21T05:42:51;10.50;99.90
39099;DHT22;24844;52.380;7.018;2023-03-21T05:45:17;10.50;99.90
39099;DHT22;24844;52.380;7.018;2023-03-21T05:47:42;10.50;99.90
39099;DHT22;24844;52.380;7.018;2023-03-21T05:50:09;10.30;99.90
39099;DHT22;24844;52.380;7.018;2023-03-21T05:52:35;10.40;99.90
39099;DHT22;24844;52.380;7.018;2023-03-21T05:55:02;10.40;99.90
39099;DHT22;24844;52.380;7.018;2023-03-21T05:57:27;10.40;99.90
39099;DHT22;24844;52.380;7.018;2023-03-21T05:59:54;10.40;99.90
39099;DHT22;24844;52.380;7.018;2023-03-21T06:02:19;10.50;99.90
39099;DHT22;24844;52.380;7.018;2023-03-21T06:04:45;10.50;99.90
39099;DHT22;24844;52.380;7.018;2023-03-21T06:07:11;10.60;99.90
39099;DHT22;24844;52.380;7.018;2023-03-21T06:09:36;10.60;99.90
39099;DHT22;24844;52.380;7.018;2023-03-21T06:12:02;10.60;99.90
39099;DHT22;24844;52.380;7.018;2023-03-21T06:14:27;10.60;99.90
39099;DHT22;24844;52.380;7.018;2023-03-21T06:16:53;10.60;99.90
39099;DHT22;24844;52.380;7.018;2023-03-21T06:19:19;10.70;99.90
39099;DHT22;24844;52.380;7.018;2023-03-21T06:21:46;10.60;99.90
39099;DHT22;24844;52.380;7.018;2023-03-21T06:24:13;10.60;99.90
39099;DHT22;24844;52.380;7.018;2023-03-21T06:26:38;10.80;99.90
39099;DHT22;24844;52.380;7.018;2023-03-21T06:29:06;10.40;99.90
39099;DHT22;24844;52.380;7.018;2023-03-21T06:31:32;10.40;99.90
39099;DHT22;24844;52.380;7.018;2023-03-21T06:33:57;10.60;99.90
39099;DHT22;24844;52.380;7.018;2023-03-21T06:36:23;10.40;99.90
39099;DHT22;24844;52.380;7.018;2023-03-21T06:38:49;10.40;99.90
39099;DHT22;24844;52.380;7.018;2023-03-21T06:41:14;10.50;99.90
39099;DHT22;24844;52.380;7.018;2023-03-21T06:43:41;10.40;99.90
39099;DHT22;24844;52.380;7.018;2023-03-21T06:46:07;10.50;99.90
39099;DHT22;24844;52.380;7.018;2023-03-21T06:48:32;10.20;99.90
39099;DHT22;24844;52.380;7.018;2023-03-21T06:50:58;10.20;99.90
39099;DHT22;24844;52.380;7.018;2023-03-21T06:53:25;10.30;99.90
39099;DHT22;24844;52.380;7.018;2023-03-21T06:55:54;10.20;99.90
39099;DHT22;24844;52.380;7.018;2023-03-21T06:58:20;10.10;99.90
39099;DHT22;24844;52.380;7.018;2023-03-21T07:00:47;10.10;99.90
39099;DHT22;24844;52.380;7.018;2023-03-21T07:03:13;10.10;99.90
39099;DHT22;24844;52.380;7.018;2023-03-21T07:05:39;10.00;99.90
39099;DHT22;24844;52.380;7.018;2023-03-21T07:08:06;10.00;99.90
39099;DHT22;24844;52.380;7.018;2023-03-21T07:10:38;10.10;99.90
39099;DHT22;24844;52.380;7.018;2023-03-21T07:13:04;9.80;99.90
39099;DHT22;24844;52.380;7.018;2023-03-21T07:15:30;9.80;99.90
39099;DHT22;24844;52.380;7.018;2023-03-21T07:17:56;9.90;99.90
39099;DHT22;24844;52.380;7.018;2023-03-21T07:20:22;10.00;99.90
39099;DHT22;24844;52.380;7.018;2023-03-21T07:22:47;9.90;99.90
39099;DHT22;24844;52.380;7.018;2023-03-21T07:25:13;10.10;99.90
39099;DHT22;24844;52.380;7.018;2023-03-21T07:27:39;10.00;99.90
39099;DHT22;24844;52.380;7.018;2023-03-21T07:30:05;9.90;99.90
39099;DHT22;24844;52.380;7.018;2023-03-21T07:32:32;9.80;99.90
39099;DHT22;24844;52.380;7.018;2023-03-21T07:34:58;9.90;99.90
39099;DHT22;24844;52.380;7.018;2023-03-21T07:37:25;9.90;99.90
39099;DHT22;24844;52.380;7.018;2023-03-21T07:39:50;10.00;99.90
39099;DHT22;24844;52.380;7.018;2023-03-21T07:42:16;9.90;99.90
39099;DHT22;24844;52.380;7.018;2023-03-21T07:44:42;9.90;99.90
39099;DHT22;24844;52.380;7.018;2023-03-21T07:47:07;9.90;99.90
39099;DHT22;24844;52.380;7.018;2023-03-21T07:49:33;9.80;99.90
39099;DHT22;24844;52.380;7.018;2023-03-21T07:51:59;9.80;99.90
39099;DHT22;24844;52.380;7.018;2023-03-21T07:54:26;9.70;99.90
39099;DHT22;24844;52.380;7.018;2023-03-21T07:56:53;9.80;99.90
39099;DHT22;24844;52.380;7.018;2023-03-21T07:59:19;9.90;99.90
39099;DHT22;24844;52.380;7.018;2023-03-21T08:01:44;9.90;99.90
39099;DHT22;24844;52.380;7.018;2023-03-21T08:04:10;10.00;99.90
39099;DHT22;24844;52.380;7.018;2023-03-21T08:06:35;10.10;99.90
39099;DHT22;24844;52.380;7.018;2023-03-21T08:09:01;10.30;99.90
39099;DHT22;24844;52.380;7.018;2023-03-21T08:11:28;10.20;99.90
39099;DHT22;24844;52.380;7.018;2023-03-21T08:13:56;10.20;99.90
39099;DHT22;24844;52.380;7.018;2023-03-21T08:16:22;10.20;99.90
39099;DHT22;24844;52.380;7.018;2023-03-21T08:18:47;10.20;99.90
39099;DHT22;24844;52.380;7.018;2023-03-21T08:21:13;10.20;99.90
39099;DHT22;24844;52.380;7.018;2023-03-21T08:23:39;10.10;99.90
39099;DHT22;24844;52.380;7.018;2023-03-21T08:26:04;10.20;99.90
39099;DHT22;24844;52.380;7.018;2023-03-21T08:28:30;10.20;99.90
39099;DHT22;24844;52.380;7.018;2023-03-21T08:30:56;9.90;99.90
39099;DHT22;24844;52.380;7.018;2023-03-21T08:33:21;10.10;99.90
39099;DHT22;24844;52.380;7.018;2023-03-21T08:35:47;10.00;99.90
39099;DHT22;24844;52.380;7.018;2023-03-21T08:38:13;10.00;99.90
39099;DHT22;24844;52.380;7.018;2023-03-21T08:40:38;10.20;99.90
39099;DHT22;24844;52.380;7.018;2023-03-21T08:43:04;10.10;99.90
39099;DHT22;24844;52.380;7.018;2023-03-21T08:45:30;10.10;99.90
39099;DHT22;24844;52.380;7.018;2023-03-21T08:47:56;10.10;99.90
39099;DHT22;24844;52.380;7.018;2023-03-21T08:50:23;10.00;99.90
39099;DHT22;24844;52.380;7.018;2023-03-21T08:52:51;10.20;99.90
39099;DHT22;24844;52.380;7.018;2023-03-21T08:55:17;10.10;99.90
39099;DHT22;24844;52.380;7.018;2023-03-21T08:57:43;10.10;99.90
39099;DHT22;24844;52.380;7.018;2023-03-21T09:00:12;10.00;99.90
39099;DHT22;24844;52.380;7.018;2023-03-21T09:02:43;10.00;99.90
39099;DHT22;24844;52.380;7.018;2023-03-21T09:05:10;10.00;99.90
39099;DHT22;24844;52.380;7.018;2023-03-21T09:07:39;10.10;99.90
39099;DHT22;24844;52.380;7.018;2023-03-21T09:10:08;10.30;99.90
39099;DHT22;24844;52.380;7.018;2023-03-21T09:12:34;10.40;99.90
39099;DHT22;24844;52.380;7.018;2023-03-21T09:15:00;10.40;99.90
39099;DHT22;24844;52.380;7.018;2023-03-21T09:17:27;10.30;99.90
39099;DHT22;24844;52.380;7.018;2023-03-21T09:19:53;10.20;99.90
39099;DHT22;24844;52.380;7.018;2023-03-21T09:22:19;10.40;99.90
39099;DHT22;24844;52.380;7.018;2023-03-21T09:24:48;10.40;99.90
39099;DHT22;24844;52.380;7.018;2023-03-21T09:27:15;10.50;99.90
39099;DHT22;24844;52.380;7.018;2023-03-21T09:29:42;10.60;99.90
39099;DHT22;24844;52.380;7.018;2023-03-21T09:32:09;10.60;99.90
39099;DHT22;24844;52.380;7.018;2023-03-21T09:34:37;10.70;99.90
39099;DHT22;24844;52.380;7.018;2023-03-21T09:37:08;10.80;99.90
39099;DHT22;24844;52.380;7.018;2023-03-21T09:39:42;10.80;99.90
39099;DHT22;24844;52.380;7.018;2023-03-21T09:42:32;10.80;99.90
39099;DHT22;24844;52.380;7.018;2023-03-21T09:45:20;11.00;99.90
39099;DHT22;24844;52.380;7.018;2023-03-21T09:47:50;10.90;99.90
39099;DHT22;24844;52.380;7.018;2023-03-21T09:50:30;10.90;99.90
39099;DHT22;24844;52.380;7.018;2023-03-21T09:53:00;11.00;99.90
39099;DHT22;24844;52.380;7.018;2023-03-21T09:55:32;11.00;99.90
39099;DHT22;24844;52.380;7.018;2023-03-21T09:58:04;10.90;99.90
39099;DHT22;24844;52.380;7.018;2023-03-21T10:00:38;11.00;99.90
39099;DHT22;24844;52.380;7.018;2023-03-21T10:03:11;11.10;99.90
39099;DHT22;24844;52.380;7.018;2023-03-21T10:05:43;11.10;99.90
39099;DHT22;24844;52.380;7.018;2023-03-21T10:08:19;11.10;99.90
39099;DHT22;24844;52.380;7.018;2023-03-21T10:10:52;10.90;99.90
39099;DHT22;24844;52.380;7.018;2023-03-21T10:13:28;11.00;99.90
39099;DHT22;24844;52.380;7.018;2023-03-21T10:15:59;11.30;99.90
39099;DHT22;24844;52.380;7.018;2023-03-21T10:18:28;11.30;99.90
39099;DHT22;24844;52.380;7.018;2023-03-21T10:20:54;11.10;99.90
39099;DHT22;24844;52.380;7.018;2023-03-21T10:23:23;10.70;99.90
39099;DHT22;24844;52.380;7.018;2023-03-21T10:26:00;10.70;99.90
39099;DHT22;24844;52.380;7.018;2023-03-21T10:28:31;10.40;99.90
39099;DHT22;24844;52.380;7.018;2023-03-21T10:31:08;10.40;99.90
39099;DHT22;24844;52.380;7.018;2023-03-21T10:33:42;10.50;99.90
39099;DHT22;24844;52.380;7.018;2023-03-21T10:36:11;10.40;99.90
39099;DHT22;24844;52.380;7.018;2023-03-21T10:38:44;10.50;99.90
39099;DHT22;24844;52.380;7.018;2023-03-21T10:41:10;10.70;99.90
39099;DHT22;24844;52.380;7.018;2023-03-21T10:43:38;10.60;99.90
39099;DHT22;24844;52.380;7.018;2023-03-21T10:46:25;10.60;99.90
39099;DHT22;24844;52.380;7.018;2023-03-21T10:48:52;10.70;99.90
39099;DHT22;24844;52.380;7.018;2023-03-21T10:51:20;10.70;99.90
39099;DHT22;24844;52.380;7.018;2023-03-21T10:54:07;10.70;99.90
39099;DHT22;24844;52.380;7.018;2023-03-21T10:56:39;10.80;99.90
39099;DHT22;24844;52.380;7.018;2023-03-21T10:59:09;10.60;99.90
39099;DHT22;24844;52.380;7.018;2023-03-21T11:01:42;10.60;99.90
39099;DHT22;24844;52.380;7.018;2023-03-21T11:04:16;10.30;99.90
39099;DHT22;24844;52.380;7.018;2023-03-21T11:06:44;10.50;99.90
39099;DHT22;24844;52.380;7.018;2023-03-21T11:09:17;10.50;99.90
39099;DHT22;24844;52.380;7.018;2023-03-21T11:12:01;10.60;99.90
39099;DHT22;24844;52.380;7.018;2023-03-21T11:14:47;10.70;99.90
39099;DHT22;24844;52.380;7.018;2023-03-21T11:19:53;10.60;99.90
39099;DHT22;24844;52.380;7.018;2023-03-21T11:22:23;10.70;99.90
39099;DHT22;24844;52.380;7.018;2023-03-21T11:24:56;10.50;99.90
39099;DHT22;24844;52.380;7.018;2023-03-21T11:27:25;10.60;99.90
39099;DHT22;24844;52.380;7.018;2023-03-21T11:29:54;10.30;99.90
39099;DHT22;24844;52.380;7.018;2023-03-21T11:32:34;10.10;99.90
39099;DHT22;24844;52.380;7.018;2023-03-21T11:35:15;10.10;99.90
39099;DHT22;24844;52.380;7.018;2023-03-21T11:37:44;10.30;99.90
39099;DHT22;24844;52.380;7.018;2023-03-21T11:40:35;10.20;99.90
39099;DHT22;24844;52.380;7.018;2023-03-21T11:43:02;10.20;99.90
39099;DHT22;24844;52.380;7.018;2023-03-21T11:45:30;10.20;99.90
39099;DHT22;24844;52.380;7.018;2023-03-21T11:47:59;10.20;99.90
39099;DHT22;24844;52.380;7.018;2023-03-21T11:50:35;10.40;99.90
39099;DHT22;24844;52.380;7.018;2023-03-21T11:56:28;10.30;99.90
39099;DHT22;24844;52.380;7.018;2023-03-21T12:02:06;10.10;99.90
39099;DHT22;24844;52.380;7.018;2023-03-21T12:04:57;10.50;99.90
39099;DHT22;24844;52.380;7.018;2023-03-21T12:07:40;10.60;99.90
39099;DHT22;24844;52.380;7.018;2023-03-21T12:13:02;10.40;99.90
39099;DHT22;24844;52.380;7.018;2023-03-21T12:19:13;10.30;99.90
39099;DHT22;24844;52.380;7.018;2023-03-21T12:24:48;10.60;99.90
39099;DHT22;24844;52.380;7.018;2023-03-21T12:35:53;10.70;99.90
39099;DHT22;24844;52.380;7.018;2023-03-21T12:38:31;10.80;99.90
39099;DHT22;24844;52.380;7.018;2023-03-21T12:41:22;10.90;99.90
39099;DHT22;24844;52.380;7.018;2023-03-21T12:49:28;10.90;99.90
39099;DHT22;24844;52.380;7.018;2023-03-21T12:52:02;11.00;99.90
39099;DHT22;24844;52.380;7.018;2023-03-21T12:54:33;11.10;99.90
39099;DHT22;24844;52.380;7.018;2023-03-21T12:57:18;11.00;99.90
39099;DHT22;24844;52.380;7.018;2023-03-21T13:02:41;10.80;99.90
39099;DHT22;24844;52.380;7.018;2023-03-21T13:08:29;10.80;99.90
39099;DHT22;24844;52.380;7.018;2023-03-21T13:10:57;11.10;99.90
39099;DHT22;24844;52.380;7.018;2023-03-21T13:13:45;11.20;99.90
39099;DHT22;24844;52.380;7.018;2023-03-21T13:29:23;11.50;99.90
39099;DHT22;24844;52.380;7.018;2023-03-21T13:31:52;11.50;99.90
39099;DHT22;24844;52.380;7.018;2023-03-21T13:34:22;11.60;99.90
39099;DHT22;24844;52.380;7.018;2023-03-21T13:36:50;11.30;99.90
39099;DHT22;24844;52.380;7.018;2023-03-21T13:39:19;11.40;99.90
39099;DHT22;24844;52.380;7.018;2023-03-21T13:41:47;11.30;99.90
39099;DHT22;24844;52.380;7.018;2023-03-21T13:47:04;11.20;99.90
39099;DHT22;24844;52.380;7.018;2023-03-21T13:49:31;11.20;99.90
39099;DHT22;24844;52.380;7.018;2023-03-21T13:52:00;11.30;99.90
39099;DHT22;24844;52.380;7.018;2023-03-21T13:56:58;11.50;99.90
39099;DHT22;24844;52.380;7.018;2023-03-21T13:59:34;11.40;99.90
39099;DHT22;24844;52.380;7.018;2023-03-21T14:02:29;11.30;99.90
39099;DHT22;24844;52.380;7.018;2023-03-21T14:05:15;11.40;99.90
39099;DHT22;24844;52.380;7.018;2023-03-21T14:07:43;11.30;99.90
39099;DHT22;24844;52.380;7.018;2023-03-21T14:10:34;11.30;99.90
39099;DHT22;24844;52.380;7.018;2023-03-21T14:13:02;11.30;99.90
39099;DHT22;24844;52.380;7.018;2023-03-21T14:15:31;11.30;99.90
39099;DHT22;24844;52.380;7.018;2023-03-21T14:18:01;11.30;99.90
39099;DHT22;24844;52.380;7.018;2023-03-21T14:20:35;11.20;99.90
39099;DHT22;24844;52.380;7.018;2023-03-21T14:23:06;11.30;99.90
39099;DHT22;24844;52.380;7.018;2023-03-21T14:25:35;11.30;99.90
39099;DHT22;24844;52.380;7.018;2023-03-21T14:28:04;11.60;99.90
39099;DHT22;24844;52.380;7.018;2023-03-21T14:30:38;11.60;99.90
39099;DHT22;24844;52.380;7.018;2023-03-21T14:35:54;11.50;99.90
39099;DHT22;24844;52.380;7.018;2023-03-21T14:38:26;11.70;99.90
39099;DHT22;24844;52.380;7.018;2023-03-21T14:40:54;11.80;99.90
39099;DHT22;24844;52.380;7.018;2023-03-21T14:43:21;11.70;99.90
39099;DHT22;24844;52.380;7.018;2023-03-21T14:45:50;11.80;99.90
39099;DHT22;24844;52.380;7.018;2023-03-21T14:48:21;11.80;99.90
39099;DHT22;24844;52.380;7.018;2023-03-21T14:50:54;11.70;99.90
39099;DHT22;24844;52.380;7.018;2023-03-21T14:53:24;11.70;99.90
39099;DHT22;24844;52.380;7.018;2023-03-21T14:55:57;11.60;99.90
39099;DHT22;24844;52.380;7.018;2023-03-21T14:58:23;11.70;99.90
39099;DHT22;24844;52.380;7.018;2023-03-21T15:00:50;11.80;99.90
39099;DHT22;24844;52.380;7.018;2023-03-21T15:03:17;11.80;99.90
39099;DHT22;24844;52.380;7.018;2023-03-21T15:05:45;11.90;99.90
39099;DHT22;24844;52.380;7.018;2023-03-21T15:10:36;11.80;99.90
39099;DHT22;24844;52.380;7.018;2023-03-21T15:13:17;11.90;99.90
39099;DHT22;24844;52.380;7.018;2023-03-21T15:15:44;11.80;99.90
39099;DHT22;24844;52.380;7.018;2023-03-21T15:18:14;11.90;99.90
39099;DHT22;24844;52.380;7.018;2023-03-21T15:20:41;12.00;99.90
39099;DHT22;24844;52.380;7.018;2023-03-21T15:23:24;11.90;99.90
39099;DHT22;24844;52.380;7.018;2023-03-21T15:25:51;11.90;99.90
39099;DHT22;24844;52.380;7.018;2023-03-21T15:28:17;11.80;99.90
39099;DHT22;24844;52.380;7.018;2023-03-21T15:30:50;11.80;99.90
39099;DHT22;24844;52.380;7.018;2023-03-21T15:33:17;11.80;99.90
39099;DHT22;24844;52.380;7.018;2023-03-21T15:35:48;12.00;99.90
39099;DHT22;24844;52.380;7.018;2023-03-21T15:41:25;12.20;99.90
39099;DHT22;24844;52.380;7.018;2023-03-21T15:46:48;12.30;99.90
39099;DHT22;24844;52.380;7.018;2023-03-21T15:54:28;12.30;99.90
39099;DHT22;24844;52.380;7.018;2023-03-21T15:56:56;12.10;99.90
39099;DHT22;24844;52.380;7.018;2023-03-21T15:59:24;12.10;99.90
39099;DHT22;24844;52.380;7.018;2023-03-21T16:01:51;12.10;99.90
39099;DHT22;24844;52.380;7.018;2023-03-21T16:04:17;12.00;99.90
39099;DHT22;24844;52.380;7.018;2023-03-21T16:07:13;11.90;99.90
39099;DHT22;24844;52.380;7.018;2023-03-21T16:09:45;11.90;99.90
39099;DHT22;24844;52.380;7.018;2023-03-21T16:12:13;12.00;99.90
39099;DHT22;24844;52.380;7.018;2023-03-21T16:14:39;12.00;99.90
39099;DHT22;24844;52.380;7.018;2023-03-21T16:19:48;12.30;99.90
39099;DHT22;24844;52.380;7.018;2023-03-21T16:22:13;12.20;99.90
39099;DHT22;24844;52.380;7.018;2023-03-21T16:24:39;12.40;99.90
39099;DHT22;24844;52.380;7.018;2023-03-21T16:27:05;12.40;99.90
39099;DHT22;24844;52.380;7.018;2023-03-21T16:29:31;12.50;99.90
39099;DHT22;24844;52.380;7.018;2023-03-21T16:31:56;12.40;99.90
39099;DHT22;24844;52.380;7.018;2023-03-21T16:34:22;12.20;99.90
39099;DHT22;24844;52.380;7.018;2023-03-21T16:36:47;12.20;99.90
39099;DHT22;24844;52.380;7.018;2023-03-21T16:39:21;11.90;99.90
39099;DHT22;24844;52.380;7.018;2023-03-21T16:41:48;11.70;99.90
39099;DHT22;24844;52.380;7.018;2023-03-21T16:44:15;11.70;99.90
39099;DHT22;24844;52.380;7.018;2023-03-21T16:46:41;11.80;99.90
39099;DHT22;24844;52.380;7.018;2023-03-21T16:49:17;11.80;99.90
39099;DHT22;24844;52.380;7.018;2023-03-21T16:51:42;11.70;99.90
39099;DHT22;24844;52.380;7.018;2023-03-21T16:54:08;11.80;99.90
39099;DHT22;24844;52.380;7.018;2023-03-21T16:56:38;11.90;99.90
39099;DHT22;24844;52.380;7.018;2023-03-21T16:59:06;12.00;99.90
39099;DHT22;24844;52.380;7.018;2023-03-21T17:01:32;11.90;99.90
39099;DHT22;24844;52.380;7.018;2023-03-21T17:04:00;11.90;99.90
39099;DHT22;24844;52.380;7.018;2023-03-21T17:06:28;11.90;99.90
39099;DHT22;24844;52.380;7.018;2023-03-21T17:08:54;11.90;99.90
39099;DHT22;24844;52.380;7.018;2023-03-21T17:11:23;12.00;99.90
39099;DHT22;24844;52.380;7.018;2023-03-21T17:13:50;12.10;99.90
39099;DHT22;24844;52.380;7.018;2023-03-21T17:16:18;11.90;99.90
39099;DHT22;24844;52.380;7.018;2023-03-21T17:18:45;11.80;99.90
39099;DHT22;24844;52.380;7.018;2023-03-21T17:21:18;11.90;99.90
39099;DHT22;24844;52.380;7.018;2023-03-21T17:23:44;11.70;99.90
39099;DHT22;24844;52.380;7.018;2023-03-21T17:26:20;11.60;99.90